Terminal Aerodrome Forecast
Issued by NWS Binghamton, NY

Home | Current Version | Previous Version | Text Only | Print | Product List | Glossary On
Versions: 1 2 3 4 5 6 7 8 9 10 11 12 13 14 15 16 17
000
FTUS41 KBGM 291727
TAFSYR
TAF
KSYR 291727Z 2918/3018 19010KT P6SM SCT025 BKN035
      TEMPO 2918/2920 3SM TSRA BR OVC025CB
     FM292100 20008KT P6SM SCT040
     FM300000 15005KT P6SM SCT060
     FM300900 15007KT P6SM BKN035
     FM301500 18010KT 4SM SHRA BR OVC025=

USA.gov is the U.S. government's official web portal to all federal, state and local government web resources and services.